createdAt,value
2023-02-11T00:01:26.880Z,50.70
2023-02-11T00:03:55.655Z,52.60
2023-02-11T00:06:25.608Z,48.90
2023-02-11T00:08:54.348Z,53.70
2023-02-11T00:11:25.707Z,48.40
2023-02-11T00:13:53.782Z,45.10
2023-02-11T00:16:21.984Z,49.90
2023-02-11T00:18:50.553Z,41.00
2023-02-11T00:21:22.283Z,44.40
2023-02-11T00:23:51.431Z,42.10
2023-02-11T00:26:25.985Z,40.50
2023-02-11T00:28:54.122Z,34.30
2023-02-11T00:31:23.735Z,52.30
2023-02-11T00:33:52.160Z,42.20
2023-02-11T00:36:25.410Z,37.10
2023-02-11T00:38:55.494Z,38.40
2023-02-11T00:41:24.146Z,35.00
2023-02-11T00:43:53.105Z,41.20
2023-02-11T00:46:21.554Z,37.80
2023-02-11T00:48:51.956Z,43.70
2023-02-11T00:51:22.666Z,40.70
2023-02-11T00:53:52.152Z,42.70
2023-02-11T00:56:28.153Z,34.90
2023-02-11T00:59:02.544Z,30.90
2023-02-11T01:01:30.590Z,29.70
2023-02-11T01:03:58.686Z,34.30
2023-02-11T01:06:26.595Z,31.00
2023-02-11T01:08:54.642Z,41.50
2023-02-11T01:11:23.014Z,32.70
2023-02-11T01:13:51.099Z,33.00
2023-02-11T01:16:20.660Z,33.60
2023-02-11T01:18:49.298Z,32.80
2023-02-11T01:21:19.315Z,29.50
2023-02-11T01:23:47.765Z,28.50
2023-02-11T01:26:16.383Z,29.60
2023-02-11T01:28:44.841Z,27.50
2023-02-11T01:31:13.119Z,28.20
2023-02-11T01:33:41.896Z,23.70
2023-02-11T01:36:11.945Z,27.60
2023-02-11T01:38:41.145Z,25.00
2023-02-11T01:41:12.727Z,26.30
2023-02-11T01:43:44.267Z,33.60
2023-02-11T01:46:15.478Z,31.20
2023-02-11T01:48:57.630Z,33.70
2023-02-11T01:51:32.866Z,39.40
2023-02-11T01:54:21.761Z,28.70
2023-02-11T01:57:11.573Z,29.10
2023-02-11T02:00:15.805Z,23.20
2023-02-11T02:02:44.105Z,23.20
2023-02-11T02:05:24.341Z,28.10
2023-02-11T02:08:23.520Z,27.20
2023-02-11T02:10:56.534Z,23.40
2023-02-11T02:13:26.095Z,25.40
2023-02-11T02:16:20.297Z,21.80
2023-02-11T02:19:19.830Z,30.60
2023-02-11T02:22:15.414Z,23.30
2023-02-11T02:25:18.864Z,30.50
2023-02-11T02:27:49.575Z,20.60
2023-02-11T02:30:26.545Z,24.80
2023-02-11T02:33:21.708Z,25.60
2023-02-11T02:35:58.506Z,31.00
2023-02-11T02:38:30.593Z,27.30
2023-02-11T02:41:10.279Z,20.90
2023-02-11T02:43:43.108Z,25.10
2023-02-11T02:46:19.744Z,23.70
2023-02-11T02:48:55.126Z,26.30
2023-02-11T02:51:48.835Z,27.00
2023-02-11T02:54:38.804Z,23.40
2023-02-11T02:57:33.066Z,22.20
2023-02-11T03:04:42.897Z,24.50
2023-02-11T03:07:28.774Z,16.70
2023-02-11T03:10:08.703Z,26.70
2023-02-11T03:12:38.656Z,26.60
2023-02-11T03:15:07.749Z,19.70
2023-02-11T03:17:39.605Z,25.60
2023-02-11T03:20:11.462Z,24.00
2023-02-11T03:23:12.782Z,21.50
2023-02-11T03:26:02.933Z,22.70
2023-02-11T03:28:37.475Z,24.80
2023-02-11T03:31:19.293Z,23.30
2023-02-11T03:34:08.792Z,20.60
2023-02-11T03:36:48.064Z,22.90
2023-02-11T03:39:30.808Z,27.10
2023-02-11T03:42:02.175Z,29.60
2023-02-11T03:44:36.797Z,28.60
2023-02-11T03:47:10.222Z,25.60
2023-02-11T03:49:41.827Z,27.50
2023-02-11T03:52:12.447Z,27.70
2023-02-11T03:54:43.599Z,25.90
2023-02-11T03:57:11.708Z,23.50
2023-02-11T04:00:00.620Z,28.60
2023-02-11T04:02:32.559Z,25.40
2023-02-11T04:05:01.521Z,23.90
2023-02-11T04:07:29.882Z,22.40
2023-02-11T04:09:57.851Z,24.30
2023-02-11T04:12:26.625Z,24.50
2023-02-11T04:14:54.706Z,24.70
2023-02-11T04:17:22.898Z,23.40
2023-02-11T04:19:50.905Z,23.90
2023-02-11T04:22:18.817Z,24.40
2023-02-11T04:24:46.905Z,24.50
2023-02-11T04:27:15.087Z,25.00
2023-02-11T04:29:43.172Z,24.00
2023-02-11T04:32:11.813Z,25.30
2023-02-11T04:34:40.176Z,21.50
2023-02-11T04:37:08.513Z,19.40
2023-02-11T04:39:36.811Z,22.90
2023-02-11T04:42:05.040Z,25.20
2023-02-11T04:44:33.064Z,31.70
2023-02-11T04:47:01.206Z,23.70
2023-02-11T04:49:29.352Z,24.00
2023-02-11T04:51:57.376Z,23.00
2023-02-11T04:54:25.517Z,23.20
2023-02-11T04:56:53.527Z,21.30
2023-02-11T04:59:21.746Z,20.50
2023-02-11T05:01:50.068Z,33.10
2023-02-11T05:04:18.411Z,19.90
2023-02-11T05:06:46.472Z,23.50
2023-02-11T05:09:15.275Z,25.40
2023-02-11T05:11:43.413Z,23.10
2023-02-11T05:14:11.454Z,18.70
2023-02-11T05:16:39.826Z,22.80
2023-02-11T05:19:08.010Z,26.00
2023-02-11T05:21:35.952Z,24.20
2023-02-11T05:24:04.198Z,23.80
2023-02-11T05:26:32.732Z,21.20
2023-02-11T05:29:00.972Z,23.10
2023-02-11T05:31:29.156Z,22.60
2023-02-11T05:33:57.269Z,25.70
2023-02-11T05:36:25.415Z,21.80
2023-02-11T05:38:53.482Z,21.00
2023-02-11T05:41:22.021Z,18.70
2023-02-11T05:43:53.861Z,22.50
2023-02-11T05:46:22.072Z,18.50
2023-02-11T05:48:50.167Z,21.30
2023-02-11T05:51:18.352Z,21.60
2023-02-11T05:53:46.364Z,19.90
2023-02-11T05:56:14.767Z,26.50
2023-02-11T05:58:42.918Z,20.10
2023-02-11T06:01:11.000Z,24.90
2023-02-11T06:03:39.012Z,23.10
2023-02-11T06:06:10.786Z,22.60
2023-02-11T06:08:39.806Z,32.60
2023-02-11T06:11:07.760Z,30.60
2023-02-11T06:13:36.691Z,27.00
2023-02-11T06:16:05.094Z,25.20
2023-02-11T06:18:33.748Z,24.20
2023-02-11T06:21:01.766Z,20.00
2023-02-11T06:23:30.503Z,21.20
2023-02-11T06:26:09.028Z,17.10
2023-02-11T06:28:39.319Z,25.40
2023-02-11T06:31:09.807Z,21.50
2023-02-11T06:33:38.853Z,23.50
2023-02-11T06:36:18.636Z,18.60
2023-02-11T06:38:48.153Z,27.30
2023-02-11T06:41:20.243Z,17.50
2023-02-11T06:43:48.937Z,22.40
2023-02-11T06:46:17.580Z,28.60
2023-02-11T06:48:46.156Z,58.20
2023-02-11T06:51:14.980Z,82.50
2023-02-11T06:53:45.707Z,59.30
2023-02-11T06:56:17.524Z,39.00
2023-02-11T06:58:46.026Z,31.10
2023-02-11T07:01:16.486Z,33.10
2023-02-11T07:03:46.097Z,31.50
2023-02-11T07:06:17.426Z,27.20
2023-02-11T07:08:46.166Z,27.40
2023-02-11T07:11:21.412Z,24.40
2023-02-11T07:13:49.289Z,32.80
2023-02-11T07:16:18.852Z,31.50
2023-02-11T07:18:47.999Z,25.90
2023-02-11T07:21:19.300Z,29.50
2023-02-11T07:23:49.021Z,39.20
2023-02-11T07:26:20.082Z,30.00
2023-02-11T07:28:48.133Z,36.80
2023-02-11T07:31:25.766Z,36.50
2023-02-11T07:33:56.720Z,33.30
2023-02-11T07:36:24.887Z,41.70
2023-02-11T07:38:53.143Z,40.50
2023-02-11T07:41:23.191Z,51.70
2023-02-11T07:43:51.610Z,34.70
2023-02-11T07:46:22.559Z,32.20
2023-02-11T07:48:51.411Z,33.50
2023-02-11T07:51:26.104Z,37.20
2023-02-11T07:53:55.579Z,41.80
2023-02-11T07:56:23.776Z,35.50
2023-02-11T07:58:52.195Z,34.10
2023-02-11T08:01:25.302Z,40.40
2023-02-11T08:03:54.102Z,46.30
2023-02-11T08:06:24.895Z,43.20
2023-02-11T08:08:53.299Z,41.20
2023-02-11T08:11:26.407Z,48.60
2023-02-11T08:13:56.033Z,61.80
2023-02-11T08:16:50.011Z,65.70
2023-02-11T08:19:18.154Z,72.00
2023-02-11T08:21:47.137Z,66.00
2023-02-11T08:24:15.954Z,65.30
2023-02-11T08:26:44.683Z,73.80
2023-02-11T08:29:15.094Z,62.30
2023-02-11T08:31:46.114Z,52.00
2023-02-11T08:34:14.747Z,56.90
2023-02-11T08:36:43.474Z,57.70
2023-02-11T08:39:22.608Z,70.90
2023-02-11T08:41:56.866Z,58.20
2023-02-11T08:44:25.263Z,57.80
2023-02-11T08:46:53.407Z,55.60
2023-02-11T08:49:22.274Z,61.10
2023-02-11T08:51:50.562Z,56.80
2023-02-11T08:54:18.442Z,52.00
2023-02-11T08:56:46.446Z,55.20
2023-02-11T08:59:15.482Z,63.00
2023-02-11T09:01:44.650Z,58.10
2023-02-11T09:04:13.193Z,59.30
2023-02-11T09:06:41.375Z,52.60
2023-02-11T09:09:14.509Z,60.30
2023-02-11T09:11:44.781Z,52.30
2023-02-11T09:14:22.526Z,54.50
2023-02-11T09:16:51.863Z,57.70
2023-02-11T09:19:21.013Z,59.50
2023-02-11T09:21:49.534Z,62.20
2023-02-11T09:24:18.044Z,65.20
2023-02-11T09:26:46.097Z,63.70
2023-02-11T09:29:14.350Z,74.70
2023-02-11T09:31:42.374Z,68.00
2023-02-11T09:34:11.931Z,75.00
2023-02-11T09:36:41.579Z,80.70
2023-02-11T09:39:17.298Z,77.40
2023-02-11T09:42:00.497Z,84.70
2023-02-11T09:44:33.502Z,78.40
2023-02-11T09:47:05.972Z,76.50
2023-02-11T09:49:44.492Z,91.50
2023-02-11T09:52:18.421Z,89.00
2023-02-11T09:54:58.219Z,82.10
2023-02-11T09:57:35.757Z,80.00
2023-02-11T10:00:24.117Z,86.80
2023-02-11T10:02:58.129Z,88.60
2023-02-11T10:05:56.532Z,88.10
2023-02-11T10:08:38.151Z,82.60
2023-02-11T10:11:31.245Z,76.80
2023-02-11T10:14:21.813Z,75.50
2023-02-11T10:17:15.434Z,78.00
2023-02-11T10:20:11.149Z,77.50
2023-02-11T10:23:22.690Z,85.20
2023-02-11T10:25:54.671Z,83.70
2023-02-11T10:28:36.933Z,80.40
2023-02-11T10:31:22.999Z,88.30
2023-02-11T10:34:03.516Z,87.40
2023-02-11T10:36:35.874Z,84.40
2023-02-11T10:39:31.901Z,89.20
2023-02-11T10:42:05.493Z,79.20
2023-02-11T10:44:39.370Z,98.20
2023-02-11T10:47:23.691Z,96.00
2023-02-11T10:49:51.769Z,91.40
2023-02-11T10:52:25.221Z,87.10
2023-02-11T10:55:14.586Z,92.40
2023-02-11T10:57:50.903Z,94.10
2023-02-11T11:00:36.494Z,80.00
2023-02-11T11:03:25.500Z,86.30
2023-02-11T11:06:00.296Z,92.30
2023-02-11T11:08:47.939Z,78.10
2023-02-11T11:11:19.188Z,80.50
2023-02-11T11:13:53.146Z,86.70
2023-02-11T11:16:25.877Z,79.40
2023-02-11T11:19:21.624Z,74.70
2023-02-11T11:21:57.169Z,73.60
2023-02-11T11:24:29.478Z,81.40
2023-02-11T11:27:01.606Z,82.10
2023-02-11T11:29:39.457Z,74.20
2023-02-11T11:32:20.539Z,73.90
2023-02-11T11:34:52.427Z,68.40
2023-02-11T11:37:24.836Z,67.70
2023-02-11T11:40:10.501Z,69.40
2023-02-11T11:42:39.973Z,62.90
2023-02-11T11:45:19.826Z,70.60
2023-02-11T11:47:54.307Z,62.80
2023-02-11T11:50:27.848Z,55.10
2023-02-11T11:52:55.722Z,57.70
2023-02-11T11:55:42.469Z,61.60
2023-02-11T11:58:15.909Z,65.50
2023-02-11T12:00:53.643Z,60.20
2023-02-11T12:03:27.954Z,54.20
2023-02-11T12:06:29.379Z,61.80
2023-02-11T12:09:34.158Z,66.20
2023-02-11T12:12:21.012Z,65.50
2023-02-11T12:15:10.334Z,58.10
2023-02-11T12:17:56.884Z,65.60
2023-02-11T12:20:27.731Z,53.90
2023-02-11T12:23:17.649Z,59.80
2023-02-11T12:26:06.623Z,61.40
2023-02-11T12:28:34.845Z,60.40
2023-02-11T12:31:13.198Z,59.10
2023-02-11T12:34:08.401Z,66.00
2023-02-11T12:36:41.951Z,55.20
2023-02-11T12:39:24.525Z,58.40
2023-02-11T12:42:30.857Z,55.50
2023-02-11T12:45:04.722Z,56.50
2023-02-11T12:47:32.682Z,58.60
2023-02-11T12:50:13.365Z,56.30
2023-02-11T12:52:50.445Z,56.70
2023-02-11T12:55:28.216Z,53.80
2023-02-11T12:58:01.587Z,58.30
2023-02-11T13:00:51.501Z,62.00
2023-02-11T13:03:32.009Z,56.10
2023-02-11T13:06:07.959Z,60.10
2023-02-11T13:08:40.914Z,63.70
2023-02-11T13:11:16.119Z,58.50
2023-02-11T13:13:56.406Z,56.60
2023-02-11T13:16:39.503Z,63.20
2023-02-11T13:19:13.428Z,55.30
2023-02-11T13:22:04.921Z,64.60
2023-02-11T13:24:44.456Z,60.90
2023-02-11T13:27:18.372Z,63.10
2023-02-11T13:30:26.908Z,62.80
2023-02-11T13:32:55.733Z,55.70
2023-02-11T13:35:39.921Z,62.30
2023-02-11T13:38:16.789Z,62.80
2023-02-11T13:40:45.367Z,60.10
2023-02-11T13:43:23.269Z,57.10
2023-02-11T13:45:57.834Z,64.00
2023-02-11T13:48:31.750Z,64.30
2023-02-11T13:51:34.567Z,67.00
2023-02-11T13:54:04.166Z,65.20
2023-02-11T13:56:36.676Z,61.90
2023-02-11T13:59:25.912Z,62.50
2023-02-11T14:02:12.319Z,58.30
2023-02-11T14:05:31.253Z,66.00
2023-02-11T14:08:30.325Z,65.20
2023-02-11T14:11:14.911Z,60.10
2023-02-11T14:13:48.866Z,61.50
2023-02-11T14:16:35.609Z,64.50
2023-02-11T14:19:06.485Z,53.20
2023-02-11T14:21:38.952Z,58.80
2023-02-11T14:24:10.116Z,54.60
2023-02-11T14:26:41.187Z,53.80
2023-02-11T14:29:41.145Z,53.00
2023-02-11T14:32:47.841Z,50.20
2023-02-11T14:35:18.976Z,50.00
2023-02-11T14:38:06.525Z,48.30
2023-02-11T14:40:53.173Z,47.10
2023-02-11T14:43:29.331Z,48.00
2023-02-11T14:45:58.895Z,47.00
2023-02-11T14:48:35.199Z,49.50
2023-02-11T14:51:06.272Z,48.10
2023-02-11T14:53:35.218Z,48.20
2023-02-11T14:56:04.096Z,51.40
2023-02-11T14:58:32.988Z,44.60
2023-02-11T15:01:20.987Z,47.90
2023-02-11T15:03:49.991Z,44.70
2023-02-11T15:06:21.041Z,42.00
2023-02-11T15:08:52.488Z,42.50
2023-02-11T15:11:23.790Z,47.80
2023-02-11T15:13:55.317Z,50.00
2023-02-11T15:16:25.670Z,52.10
2023-02-11T15:19:00.152Z,48.00
2023-02-11T15:21:32.721Z,49.70
2023-02-11T15:24:02.840Z,57.90
2023-02-11T15:26:31.177Z,44.00
2023-02-11T15:28:59.425Z,53.60
2023-02-11T15:31:28.529Z,54.70
2023-02-11T15:34:08.016Z,54.00
2023-02-11T15:36:37.764Z,56.00
2023-02-11T15:39:41.037Z,55.30
2023-02-11T15:42:17.930Z,56.30
2023-02-11T15:44:49.184Z,53.80
2023-02-11T15:47:22.738Z,58.60
2023-02-11T15:49:51.318Z,55.10
2023-02-11T15:52:25.689Z,68.40
2023-02-11T15:54:56.501Z,61.80
2023-02-11T15:57:24.488Z,74.60
2023-02-11T15:59:54.843Z,65.90
2023-02-11T16:02:45.258Z,73.10
2023-02-11T16:05:37.880Z,77.90
2023-02-11T16:08:26.280Z,72.00
2023-02-11T16:10:58.637Z,77.10
2023-02-11T16:13:28.289Z,75.60
2023-02-11T16:16:05.980Z,82.70
2023-02-11T16:19:03.162Z,80.90
2023-02-11T16:21:36.330Z,86.50
2023-02-11T16:24:07.489Z,81.90
2023-02-11T16:26:43.254Z,78.40
2023-02-11T16:29:23.594Z,84.70
2023-02-11T16:31:53.591Z,78.20
2023-02-11T16:34:24.662Z,80.70
2023-02-11T16:36:53.030Z,80.00
2023-02-11T16:39:22.490Z,86.00
2023-02-11T16:41:51.883Z,111.90
2023-02-11T16:44:19.864Z,77.40
2023-02-11T16:46:48.137Z,70.80
2023-02-11T16:49:40.905Z,70.30
2023-02-11T16:52:14.635Z,67.80
2023-02-11T16:54:42.924Z,66.50
2023-02-11T16:57:16.151Z,76.10
2023-02-11T16:59:44.709Z,81.90
2023-02-11T17:02:22.873Z,84.10
2023-02-11T17:04:59.151Z,88.50
2023-02-11T17:07:28.247Z,88.20
2023-02-11T17:09:56.954Z,91.50
2023-02-11T17:12:27.850Z,92.30
2023-02-11T17:14:55.768Z,93.10
2023-02-11T17:17:23.946Z,95.00
2023-02-11T17:19:52.224Z,87.50
2023-02-11T17:22:20.305Z,84.60
2023-02-11T17:24:48.367Z,84.80
2023-02-11T17:27:17.234Z,87.60
2023-02-11T17:29:45.235Z,88.50
2023-02-11T17:32:13.326Z,90.00
2023-02-11T17:34:41.456Z,91.00
2023-02-11T17:37:10.495Z,91.40
2023-02-11T17:39:40.238Z,86.60
2023-02-11T17:42:08.900Z,85.10
2023-02-11T17:44:37.545Z,89.40
2023-02-11T17:47:05.473Z,86.40
2023-02-11T17:49:33.512Z,88.50
2023-02-11T17:52:01.450Z,95.90
2023-02-11T17:54:29.539Z,142.10
2023-02-11T17:56:58.583Z,118.30
2023-02-11T17:59:29.163Z,119.00
2023-02-11T18:01:57.086Z,130.80
2023-02-11T18:04:25.008Z,115.50
2023-02-11T18:06:53.731Z,100.60
2023-02-11T18:09:22.077Z,112.60
2023-02-11T18:11:52.559Z,127.00
2023-02-11T18:14:21.838Z,116.90
2023-02-11T18:16:51.932Z,117.80
2023-02-11T18:19:20.419Z,104.00
2023-02-11T18:21:50.503Z,117.40
2023-02-11T18:24:19.196Z,119.50
2023-02-11T18:26:47.115Z,117.70
2023-02-11T18:29:15.081Z,105.50
2023-02-11T18:31:43.191Z,111.60
2023-02-11T18:34:11.569Z,109.90
2023-02-11T18:36:39.983Z,112.00
2023-02-11T18:39:08.300Z,104.00
2023-02-11T18:41:36.382Z,107.40
2023-02-11T18:44:05.129Z,105.50
2023-02-11T18:46:33.598Z,102.90
2023-02-11T18:49:01.645Z,107.40
2023-02-11T18:51:32.356Z,109.50
2023-02-11T18:54:01.259Z,104.10
2023-02-11T18:56:29.396Z,96.80
2023-02-11T18:59:01.109Z,101.10
2023-02-11T19:01:31.648Z,103.70
2023-02-11T19:04:03.618Z,105.70
2023-02-11T19:06:35.221Z,104.00
2023-02-11T19:09:15.046Z,105.60
2023-02-11T19:11:50.516Z,109.90
2023-02-11T19:14:28.137Z,106.00
2023-02-11T19:16:58.542Z,108.90
2023-02-11T19:19:29.241Z,113.40
2023-02-11T19:21:58.688Z,107.90
2023-02-11T19:24:28.423Z,105.70
2023-02-11T19:26:59.356Z,102.10
2023-02-11T19:29:28.481Z,100.90
2023-02-11T19:31:56.471Z,107.00
2023-02-11T19:34:24.869Z,102.30
2023-02-11T19:36:54.539Z,100.10
2023-02-11T19:39:24.809Z,99.50
2023-02-11T19:41:53.279Z,115.70
2023-02-11T19:44:21.627Z,106.40
2023-02-11T19:46:50.380Z,102.40
2023-02-11T19:49:23.221Z,109.20
2023-02-11T19:51:57.685Z,119.40
2023-02-11T19:54:27.368Z,98.60
2023-02-11T19:56:56.113Z,111.30
2023-02-11T19:59:24.101Z,103.00
2023-02-11T20:01:53.912Z,105.80
2023-02-11T20:04:24.065Z,103.00
2023-02-11T20:06:52.346Z,113.40
2023-02-11T20:09:21.413Z,115.60
2023-02-11T20:11:49.798Z,120.30
2023-02-11T20:14:17.804Z,115.80
2023-02-11T20:16:49.508Z,114.90
2023-02-11T20:19:21.736Z,119.30
2023-02-11T20:21:53.368Z,109.80
2023-02-11T20:24:22.369Z,134.70
2023-02-11T20:26:55.331Z,120.50
2023-02-11T20:29:24.494Z,119.00
2023-02-11T20:31:53.710Z,115.40
2023-02-11T20:34:22.271Z,114.30
2023-02-11T20:36:53.463Z,117.80
2023-02-11T20:39:23.683Z,116.30
2023-02-11T20:41:52.499Z,115.20
2023-02-11T20:44:22.576Z,115.80
2023-02-11T20:46:52.230Z,113.70
2023-02-11T20:49:23.067Z,103.80
2023-02-11T20:51:53.689Z,104.00
2023-02-11T20:54:23.404Z,109.60
2023-02-11T20:56:53.785Z,113.30
2023-02-11T20:59:22.603Z,111.00
2023-02-11T21:01:55.507Z,124.30
2023-02-11T21:04:27.217Z,143.60
2023-02-11T21:06:58.483Z,145.80
2023-02-11T21:09:29.976Z,137.90
2023-02-11T21:11:58.875Z,121.10
2023-02-11T21:14:27.299Z,129.50
2023-02-11T21:16:55.561Z,128.70
2023-02-11T21:19:23.856Z,122.90
2023-02-11T21:21:55.190Z,123.00
2023-02-11T21:24:23.852Z,126.90
2023-02-11T21:26:51.832Z,127.40
2023-02-11T21:29:19.847Z,134.20
2023-02-11T21:31:48.941Z,118.50
2023-02-11T21:34:17.870Z,123.20
2023-02-11T21:36:46.026Z,131.50
2023-02-11T21:39:14.272Z,125.10
2023-02-11T21:41:42.472Z,127.50
2023-02-11T21:44:10.696Z,114.70
2023-02-11T21:46:41.579Z,127.30
2023-02-11T21:49:11.177Z,123.00
2023-02-11T21:51:39.785Z,124.80
2023-02-11T21:54:11.781Z,129.10
2023-02-11T21:56:44.630Z,119.70
2023-02-11T21:59:18.005Z,118.70
2023-02-11T22:01:47.464Z,114.90
2023-02-11T22:04:15.702Z,123.10
2023-02-11T22:06:46.279Z,119.10
2023-02-11T22:09:18.003Z,131.70
2023-02-11T22:11:49.707Z,135.70
2023-02-11T22:14:22.891Z,131.80
2023-02-11T22:16:52.144Z,121.50
2023-02-11T22:19:21.702Z,125.40
2023-02-11T22:21:50.097Z,127.30
2023-02-11T22:24:18.262Z,117.70
2023-02-11T22:26:46.894Z,120.10
2023-02-11T22:29:15.451Z,117.00
2023-02-11T22:31:44.231Z,106.90
2023-02-11T22:34:13.141Z,110.50
2023-02-11T22:36:42.526Z,105.30
2023-02-11T22:39:13.846Z,103.60
2023-02-11T22:41:44.757Z,101.20
2023-02-11T22:44:14.102Z,105.00
2023-02-11T22:46:42.283Z,106.50
2023-02-11T22:49:14.047Z,107.80
2023-02-11T22:51:42.948Z,110.00
2023-02-11T22:54:16.665Z,109.30
2023-02-11T22:56:47.165Z,109.90
2023-02-11T22:59:15.626Z,96.70
2023-02-11T23:01:44.804Z,103.20
2023-02-11T23:04:15.706Z,108.30
2023-02-11T23:06:43.957Z,105.30
2023-02-11T23:09:14.953Z,117.70
2023-02-11T23:11:43.240Z,116.80
2023-02-11T23:14:12.360Z,106.80
2023-02-11T23:16:41.803Z,114.90
2023-02-11T23:19:11.156Z,108.10
2023-02-11T23:21:39.649Z,111.80
2023-02-11T23:24:11.595Z,113.40
2023-02-11T23:26:40.991Z,114.30
2023-02-11T23:29:09.938Z,107.40
2023-02-11T23:31:40.626Z,117.00
2023-02-11T23:34:09.651Z,122.30
2023-02-11T23:36:37.760Z,126.80
2023-02-11T23:39:06.150Z,126.50
2023-02-11T23:41:34.315Z,120.60
2023-02-11T23:44:02.395Z,129.80
2023-02-11T23:46:30.534Z,127.80
2023-02-11T23:48:58.614Z,121.50
2023-02-11T23:51:26.996Z,121.70
2023-02-11T23:53:56.264Z,113.90
2023-02-11T23:56:27.059Z,116.30
2023-02-11T23:58:57.417Z,119.20
